Detall de PIREP

Printer-friendly versionPDF version

[2009/02/08 14:48:00]
Flight IATA:CT2110
Pilot Number:041
Company ICAO:CAT
Aircraft Type:AT72/F
PAX:66
Departing Airport: LEVC
Destination Airport: LEST
Alternate Airport:LECO
Online: VATSIM
Route:CENTA2A A33 PRADO A33 CJN A33 HORTA A33 MAGIN A33 INDEG A33 DISKO A33 ZMR A33 BARKO1G
Flight Level:FL190
No Slew and time accel
No pause
Crash detect
Detect pilot in Cockpit between each 30 and 45 minutes
14:48 Zero fuel Weight: 42944 Lbs, Fuel Weight: 4193 Lbs
14:48 VATSIM:LEVC 081430Z 28018G29KT 9999 FEW030 15/M04 Q1011 NOSIG
14:48 VATSIM:LEST 081430Z 22007KT 160V270 2000 R35/1400V2000U BCFG -RA SCT002 OVC010 10/10 Q1014 NOSIG
14:48 VOICE CATALONIAN
14:49 Parking Brakes off
14:56 Take-off
14:56 Take off Weight: 47062 Lbs
14:56 Wind: 283º @ 017 Knots Heading: 294º
14:56 POS N39º 29´ 21´´ W000º 28´ 53´´
14:56 Gear Up: 152 Knots
14:56 Flaps:1 at 153 Knots
14:56 Flaps:0 a
t 173 Knots
15:11 Wind:339º@072 Knots Heading: 310º Ground Speed: 174 Knots Altitude 18464 ft
15:11 TOC
15:11 Fuel Weight: 3614 Lb
15:26 Wind:320º@050 Knots Heading: 302º Ground Speed: 231 Knots Altitude 19028 ft
15:41 Wind:315º@046 Knots Heading: 299º Ground Speed: 235 Knots Altitude 19028 ft
15:56 Wind:310º@044 Knots Heading: 297º Ground Speed: 238 Knots Altitude 19028 ft
16:06 TOD
16:06 Fuel Weight: 2036 Lb
16:11 Wind:311º@053 Knots Heading: 305º Ground Speed: 239 Knots Altitude 15728 ft
16:26 Wind:292º@033 Knots Heading: 276º Ground Speed: 228 Knots Altitude 7211 ft
16:41 Wind:285º@030 Knots Heading: 342º Ground Speed: 240 Knots Altitude 4760 ft
16:47 Flaps:1 at 192 Knots
16:47 Gear Down: 187 Knots
16:48 Flaps:2 at 148 Knots
16:48 TouchDown:Rate -411 ft/min Speed: 112 Knots
16:49 VATSIM:LEST 081630Z 24006KT 210V290 2000 BCFG -RA SCT002 OVC008 11/11 Q1014 NO
SIG
16:49 Land
16:49 Wind:225º@007 Knots
16:49 Heading: 346º
16:49 Flight Duration: 01:53
16:49 Landing Weight: 43988 Lbs
16:49 POS N42º 53´ 44´´ W008º 24´ 54´´
16:52 Parking brakes on
16:52 Block to Block Duration: 02:03
16:52 Final Fuel: 1022 Lbls
16:52 Spent Fuel: 3170 Lbls
16:52 Flight Length: 424 NM
16:52 TOD Land Length: 162 NM

Exportar CSV

Powered by Drupal - Modified by Danger4k